• Join FlightAware (Why Join?)
  • Login
  • US Flag 
12:07AM EST


 

Airport Tracker/Info


-or-


 

Live Flight TrackerFlight Track Log ✈ N405MG ✈ 30-Aug-2013 ✈ KCHS - KRYY

Flight Track Log - Related Links

Times and Time Zones

All times are in EDT time to prevent confusion due to time zone crossing. See the N405MG flight status page for this flight to view local times or setup timezone preferences in your user account.

Time Position Orientation Groundspeed Altitude Reporting Facility
EDT Latitude Longitude Course Direction KTS MPH feet Rate Location/Type
03:46PM 33.0367 -80.1594 324° Northwest 259 298 5,900  Level Jacksonville Center
03:47PM 33.1006 -80.2169 323° Northwest 267 307 8,200 2,280 Climbing Jacksonville Center
03:48PM 33.1606 -80.2897 315° West 279 321 10,500 1,860 Climbing Jacksonville Center
03:49PM 33.1811 -80.3761 286° West 279 321 12,000 1,560 Climbing Jacksonville Center
03:50PM 33.1133 -80.6115 294° West  Level FlightAware Approximate
03:50PM 33.2164 -80.4817 292° West 297 342 13,700  Level Jacksonville Center
03:51PM 33.2517 -80.5800 293° West 311 358 15,400 1,680 Climbing Jacksonville Center
03:52PM 33.2869 -80.6811 293° West 324 373 17,100 1,740 Climbing Jacksonville Center
03:53PM 33.3508 -80.7542 316° Northwest 324 373 18,900 1,620 Climbing Jacksonville Center
03:54PM 33.4125 -80.8272 315° West 319 367 20,400 1,080 Climbing Jacksonville Center
03:55PM 33.4764 -80.9106 313° West 326 375 21,100 780 Climbing Jacksonville Center
03:56PM 33.5053 -81.0219 287° West 338 389 22,000 420 Climbing Jacksonville Center
03:57PM 33.5258 -81.1461 281° West 352 405 22,000  Level Jacksonville Center
03:58PM 33.5547 -81.2725 285° West 375 432 22,000  Level Jacksonville Center
04:00PM 33.6122 -81.5369 285° West 395 455 22,000  Level Atlanta Center
04:01PM 33.6358 -81.6711 282° West 408 470 22,000  Level Atlanta Center
04:02PM 33.6486 -81.8078 276° West 413 475 22,000  Level Atlanta Center
04:03PM 33.6344 -81.9456 263° West 408 470 22,000  Level Atlanta Center
04:04PM 33.6200 -82.0831 263° West 413 475 22,000  Level Atlanta Center
04:05PM 33.5992 -82.2181 260° West 418 481 22,000 -300 Level Atlanta Center
04:06PM 33.5783 -82.3633 260° West 436 502 21,400 -1,080 Descending Atlanta Center
04:07PM 33.5550 -82.4933 258° West 436 502 19,900 -1,680 Descending Atlanta Center
04:08PM 33.5400 -82.6306 263° West 434 499 18,100 -1,500 Descending Atlanta Center
04:09PM 33.5225 -82.7631 261° West 414 476 17,000 -600 Descending Atlanta Center
04:10PM 33.5050 -82.8853 260° West 386 444 16,900 -60 Descending Atlanta Center
04:11PM 33.4789 -83.0128 256° West 396 456 16,900 -600 Level Atlanta Center
04:12PM 33.4550 -83.1475 258° West 403 464 15,800 -1,200 Descending Atlanta Center
04:13PM 33.4350 -83.2894 260° West 403 464 14,600 -1,320 Descending Atlanta Center
04:14PM 33.4231 -83.4142 263° West 402 463 13,200 -1,440 Descending Atlanta Center
04:15PM 33.4092 -83.5361 262° West 388 447 11,800 -1,140 Descending Atlanta Center
04:16PM 33.3992 -83.6506 264° West 367 422 11,000 -720 Descending Atlanta Center
04:17PM 33.4347 -83.7350 297° West 316 364 10,400 -1,200 Descending Atlanta Center
04:18PM 33.5119 -83.7200 North 211 243 8,600 -1,980 Descending Atlanta Center
04:19PM 33.5914 -83.7097 North 240 276 6,500 -1,320 Descending Atlanta Center
04:20PM 33.6622 -83.7169 355° North 254 292 6,000 -300 Descending Atlanta Center
04:21PM 33.7272 -83.7442 341° North 243 280 6,000  Level Atlanta Center
04:22PM 33.7814 -83.7864 327° Northwest 236 272 6,000  Level Atlanta Center
04:23PM 33.8294 -83.8211 329° Northwest 236 272 6,000 -120 Level Atlanta Center
04:24PM 33.8858 -83.8636 328° Northwest 236 272 5,800 -540 Descending Atlanta Center
04:25PM 33.9339 -83.9061 324° Northwest 225 259 5,000 -420 Descending Atlanta Center
04:26PM 33.9833 -83.9667 315° West 219 252 5,000 -120 Level Atlanta TRACON
04:27PM 34.0167 -84.0333 301° West 222 255 4,800 -540 Descending Atlanta TRACON
04:28PM 34.0333 -84.1167 284° West 221 254 3,900 -480 Descending Atlanta TRACON
04:29PM 34.0167 -84.1833 253° West 226 260 3,900 -360 Level Atlanta TRACON
04:30PM 34.0167 -84.2667 270° West 225 259 3,200 -480 Descending Atlanta TRACON
04:31PM 34.0167 -84.3333 270° West 221 254 2,900 -120 Descending Atlanta TRACON
04:32PM 34.0167 -84.4167 270° West 218 251 3,000 -60 Climbing Atlanta TRACON
04:33PM 34.0167 -84.4667 270° West 177 204 2,800 -540 Descending Atlanta TRACON
04:34PM 34.0167 -84.5167 270° West 141 162 2,000 -780 Descending Atlanta TRACON
04:35PM 34.0167 -84.5667 270° West 132 152 1,400 -720 Descending Atlanta TRACON
04:37PM 34.0000 -84.5833 272° West  Level FlightAware Approximate
04:44PM 34.0132 -84.5971 272° West  Level Estimated